sensor_id;sensor_type;location;lat;lon;timestamp;temperature;humidity
19665;DHT22;9980;51.020;7.772;2022-10-15T00:01:24;17.20;99.90
19665;DHT22;9980;51.020;7.772;2022-10-15T00:03:51;17.20;99.90
19665;DHT22;9980;51.020;7.772;2022-10-15T00:06:20;17.20;99.90
19665;DHT22;9980;51.020;7.772;2022-10-15T00:08:47;17.20;99.90
19665;DHT22;9980;51.020;7.772;2022-10-15T00:11:17;17.20;99.90
19665;DHT22;9980;51.020;7.772;2022-10-15T00:13:47;17.20;99.90
19665;DHT22;9980;51.020;7.772;2022-10-15T00:16:19;17.20;99.90
19665;DHT22;9980;51.020;7.772;2022-10-15T00:18:49;17.20;99.90
19665;DHT22;9980;51.020;7.772;2022-10-15T00:21:18;17.20;99.90
19665;DHT22;9980;51.020;7.772;2022-10-15T00:23:47;17.20;99.90
19665;DHT22;9980;51.020;7.772;2022-10-15T00:26:21;17.20;99.90
19665;DHT22;9980;51.020;7.772;2022-10-15T00:28:52;17.10;99.90
19665;DHT22;9980;51.020;7.772;2022-10-15T00:31:23;17.10;99.90
19665;DHT22;9980;51.020;7.772;2022-10-15T00:33:54;17.10;99.90
19665;DHT22;9980;51.020;7.772;2022-10-15T00:36:26;17.10;99.90
19665;DHT22;9980;51.020;7.772;2022-10-15T00:38:55;17.10;99.90
19665;DHT22;9980;51.020;7.772;2022-10-15T00:41:26;17.10;99.90
19665;DHT22;9980;51.020;7.772;2022-10-15T00:44:01;17.10;99.90
19665;DHT22;9980;51.020;7.772;2022-10-15T00:49:34;17.10;99.90
19665;DHT22;9980;51.020;7.772;2022-10-15T00:52:15;17.10;99.90
19665;DHT22;9980;51.020;7.772;2022-10-15T00:55:10;17.10;99.90
19665;DHT22;9980;51.020;7.772;2022-10-15T00:57:43;17.10;99.90
19665;DHT22;9980;51.020;7.772;2022-10-15T01:00:14;17.10;99.90
19665;DHT22;9980;51.020;7.772;2022-10-15T01:02:44;17.10;99.90
19665;DHT22;9980;51.020;7.772;2022-10-15T01:05:14;17.00;99.90
19665;DHT22;9980;51.020;7.772;2022-10-15T01:07:42;17.00;99.90
19665;DHT22;9980;51.020;7.772;2022-10-15T01:10:10;17.00;99.90
19665;DHT22;9980;51.020;7.772;2022-10-15T01:12:47;17.00;99.90
19665;DHT22;9980;51.020;7.772;2022-10-15T01:15:35;17.00;99.90
19665;DHT22;9980;51.020;7.772;2022-10-15T01:18:44;17.00;99.90
19665;DHT22;9980;51.020;7.772;2022-10-15T01:21:30;17.00;99.90
19665;DHT22;9980;51.020;7.772;2022-10-15T01:24:43;17.00;99.90
19665;DHT22;9980;51.020;7.772;2022-10-15T01:27:35;17.00;99.90
19665;DHT22;9980;51.020;7.772;2022-10-15T01:30:24;17.00;99.90
19665;DHT22;9980;51.020;7.772;2022-10-15T01:33:25;16.90;99.90
19665;DHT22;9980;51.020;7.772;2022-10-15T01:36:36;16.90;99.90
19665;DHT22;9980;51.020;7.772;2022-10-15T01:39:54;16.90;99.90
19665;DHT22;9980;51.020;7.772;2022-10-15T01:42:50;16.90;99.90
19665;DHT22;9980;51.020;7.772;2022-10-15T01:45:04;16.90;99.90
19665;DHT22;9980;51.020;7.772;2022-10-15T01:48:10;16.80;99.90
19665;DHT22;9980;51.020;7.772;2022-10-15T01:50:44;16.80;99.90
19665;DHT22;9980;51.020;7.772;2022-10-15T01:53:17;16.80;99.90
19665;DHT22;9980;51.020;7.772;2022-10-15T01:55:58;16.80;99.90
19665;DHT22;9980;51.020;7.772;2022-10-15T01:58:29;16.80;99.90
19665;DHT22;9980;51.020;7.772;2022-10-15T02:00:58;16.80;99.90
19665;DHT22;9980;51.020;7.772;2022-10-15T02:03:25;16.70;99.90
19665;DHT22;9980;51.020;7.772;2022-10-15T02:06:05;16.70;99.90
19665;DHT22;9980;51.020;7.772;2022-10-15T02:08:51;16.70;99.90
19665;DHT22;9980;51.020;7.772;2022-10-15T02:11:19;16.60;99.90
19665;DHT22;9980;51.020;7.772;2022-10-15T02:13:58;16.60;99.90
19665;DHT22;9980;51.020;7.772;2022-10-15T02:16:43;16.60;99.90
19665;DHT22;9980;51.020;7.772;2022-10-15T02:19:25;16.60;99.90
19665;DHT22;9980;51.020;7.772;2022-10-15T02:22:08;16.50;99.90
19665;DHT22;9980;51.020;7.772;2022-10-15T02:24:50;16.50;99.90
19665;DHT22;9980;51.020;7.772;2022-10-15T02:27:23;16.50;99.90
19665;DHT22;9980;51.020;7.772;2022-10-15T02:29:53;16.50;99.90
19665;DHT22;9980;51.020;7.772;2022-10-15T02:32:23;16.50;99.90
19665;DHT22;9980;51.020;7.772;2022-10-15T02:34:54;16.50;99.90
19665;DHT22;9980;51.020;7.772;2022-10-15T02:37:24;16.50;99.90
19665;DHT22;9980;51.020;7.772;2022-10-15T02:39:53;16.40;99.90
19665;DHT22;9980;51.020;7.772;2022-10-15T02:42:22;16.40;99.90
19665;DHT22;9980;51.020;7.772;2022-10-15T02:44:50;16.40;99.90
19665;DHT22;9980;51.020;7.772;2022-10-15T02:47:18;16.40;99.90
19665;DHT22;9980;51.020;7.772;2022-10-15T02:49:45;16.40;99.90
19665;DHT22;9980;51.020;7.772;2022-10-15T02:52:12;16.40;99.90
19665;DHT22;9980;51.020;7.772;2022-10-15T02:54:40;16.40;99.90
19665;DHT22;9980;51.020;7.772;2022-10-15T02:57:07;16.40;99.90
19665;DHT22;9980;51.020;7.772;2022-10-15T02:59:34;16.40;99.90
19665;DHT22;9980;51.020;7.772;2022-10-15T03:02:01;16.40;99.90
19665;DHT22;9980;51.020;7.772;2022-10-15T03:04:30;16.40;99.90
19665;DHT22;9980;51.020;7.772;2022-10-15T03:06:57;16.40;99.90
19665;DHT22;9980;51.020;7.772;2022-10-15T03:09:24;16.40;99.90
19665;DHT22;9980;51.020;7.772;2022-10-15T03:11:51;16.40;99.90
19665;DHT22;9980;51.020;7.772;2022-10-15T03:14:19;16.40;99.90
19665;DHT22;9980;51.020;7.772;2022-10-15T03:16:46;16.40;99.90
19665;DHT22;9980;51.020;7.772;2022-10-15T03:19:13;16.40;99.90
19665;DHT22;9980;51.020;7.772;2022-10-15T03:21:40;16.40;99.90
19665;DHT22;9980;51.020;7.772;2022-10-15T03:24:11;16.40;99.90
19665;DHT22;9980;51.020;7.772;2022-10-15T03:26:38;16.40;99.90
19665;DHT22;9980;51.020;7.772;2022-10-15T03:29:05;16.40;99.90
19665;DHT22;9980;51.020;7.772;2022-10-15T03:31:42;16.40;99.90
19665;DHT22;9980;51.020;7.772;2022-10-15T03:34:09;16.40;99.90
19665;DHT22;9980;51.020;7.772;2022-10-15T03:36:36;16.40;99.90
19665;DHT22;9980;51.020;7.772;2022-10-15T03:39:07;16.40;99.90
19665;DHT22;9980;51.020;7.772;2022-10-15T03:41:36;16.40;99.90
19665;DHT22;9980;51.020;7.772;2022-10-15T03:44:05;16.40;99.90
19665;DHT22;9980;51.020;7.772;2022-10-15T03:46:35;16.40;99.90
19665;DHT22;9980;51.020;7.772;2022-10-15T03:49:02;16.40;99.90
19665;DHT22;9980;51.020;7.772;2022-10-15T03:51:29;16.40;99.90
19665;DHT22;9980;51.020;7.772;2022-10-15T03:54:04;16.40;99.90
19665;DHT22;9980;51.020;7.772;2022-10-15T03:56:37;16.40;99.90
19665;DHT22;9980;51.020;7.772;2022-10-15T03:59:19;16.40;99.90
19665;DHT22;9980;51.020;7.772;2022-10-15T04:01:54;16.40;99.90
19665;DHT22;9980;51.020;7.772;2022-10-15T04:04:22;16.40;99.90
19665;DHT22;9980;51.020;7.772;2022-10-15T04:06:50;16.40;99.90
19665;DHT22;9980;51.020;7.772;2022-10-15T04:09:18;16.40;99.90
19665;DHT22;9980;51.020;7.772;2022-10-15T04:11:45;16.40;99.90
19665;DHT22;9980;51.020;7.772;2022-10-15T04:14:12;16.40;99.90
19665;DHT22;9980;51.020;7.772;2022-10-15T04:16:40;16.40;99.90
19665;DHT22;9980;51.020;7.772;2022-10-15T04:19:13;16.40;99.90
19665;DHT22;9980;51.020;7.772;2022-10-15T04:21:45;16.40;99.90
19665;DHT22;9980;51.020;7.772;2022-10-15T04:24:26;16.40;99.90
19665;DHT22;9980;51.020;7.772;2022-10-15T04:26:54;16.50;99.90
19665;DHT22;9980;51.020;7.772;2022-10-15T04:29:21;16.40;99.90
19665;DHT22;9980;51.020;7.772;2022-10-15T04:31:49;16.40;99.90
19665;DHT22;9980;51.020;7.772;2022-10-15T04:34:16;16.50;99.90
19665;DHT22;9980;51.020;7.772;2022-10-15T04:36:43;16.40;99.90
19665;DHT22;9980;51.020;7.772;2022-10-15T04:39:13;16.40;99.90
19665;DHT22;9980;51.020;7.772;2022-10-15T04:41:43;16.50;99.90
19665;DHT22;9980;51.020;7.772;2022-10-15T04:44:23;16.50;99.90
19665;DHT22;9980;51.020;7.772;2022-10-15T04:46:54;16.50;99.90
19665;DHT22;9980;51.020;7.772;2022-10-15T04:49:35;16.50;99.90
19665;DHT22;9980;51.020;7.772;2022-10-15T04:52:10;16.50;99.90
19665;DHT22;9980;51.020;7.772;2022-10-15T04:54:49;16.50;99.90
19665;DHT22;9980;51.020;7.772;2022-10-15T04:57:17;16.50;99.90
19665;DHT22;9980;51.020;7.772;2022-10-15T04:59:44;16.50;99.90
19665;DHT22;9980;51.020;7.772;2022-10-15T05:02:30;16.50;99.90
19665;DHT22;9980;51.020;7.772;2022-10-15T05:05:21;16.50;99.90
19665;DHT22;9980;51.020;7.772;2022-10-15T05:08:02;16.50;99.90
19665;DHT22;9980;51.020;7.772;2022-10-15T05:10:53;16.50;99.90
19665;DHT22;9980;51.020;7.772;2022-10-15T05:13:21;16.50;99.90
19665;DHT22;9980;51.020;7.772;2022-10-15T05:15:49;16.50;99.90
19665;DHT22;9980;51.020;7.772;2022-10-15T05:18:18;16.50;99.90
19665;DHT22;9980;51.020;7.772;2022-10-15T05:20:50;16.50;99.90
19665;DHT22;9980;51.020;7.772;2022-10-15T05:23:18;16.50;99.90
19665;DHT22;9980;51.020;7.772;2022-10-15T05:26:09;16.50;99.90
19665;DHT22;9980;51.020;7.772;2022-10-15T05:28:39;16.50;99.90
19665;DHT22;9980;51.020;7.772;2022-10-15T05:31:09;16.50;99.90
19665;DHT22;9980;51.020;7.772;2022-10-15T05:33:46;16.50;99.90
19665;DHT22;9980;51.020;7.772;2022-10-15T05:36:24;16.50;99.90
19665;DHT22;9980;51.020;7.772;2022-10-15T05:38:57;16.50;99.90
19665;DHT22;9980;51.020;7.772;2022-10-15T05:41:27;16.50;99.90
19665;DHT22;9980;51.020;7.772;2022-10-15T05:43:57;16.60;99.90
19665;DHT22;9980;51.020;7.772;2022-10-15T05:46:28;16.50;99.90
19665;DHT22;9980;51.020;7.772;2022-10-15T05:48:56;16.50;99.90
19665;DHT22;9980;51.020;7.772;2022-10-15T05:51:26;16.60;99.90
19665;DHT22;9980;51.020;7.772;2022-10-15T05:54:00;16.50;99.90
19665;DHT22;9980;51.020;7.772;2022-10-15T05:56:30;16.50;99.90
19665;DHT22;9980;51.020;7.772;2022-10-15T05:58:57;16.50;99.90
19665;DHT22;9980;51.020;7.772;2022-10-15T06:01:26;16.50;99.90
19665;DHT22;9980;51.020;7.772;2022-10-15T06:03:54;16.50;99.90
19665;DHT22;9980;51.020;7.772;2022-10-15T06:06:24;16.60;99.90
19665;DHT22;9980;51.020;7.772;2022-10-15T06:08:53;16.50;99.90
19665;DHT22;9980;51.020;7.772;2022-10-15T06:11:23;16.60;99.90
19665;DHT22;9980;51.020;7.772;2022-10-15T06:13:50;16.50;99.90
19665;DHT22;9980;51.020;7.772;2022-10-15T06:16:18;16.50;99.90
19665;DHT22;9980;51.020;7.772;2022-10-15T06:18:51;16.50;99.90
19665;DHT22;9980;51.020;7.772;2022-10-15T06:21:19;16.60;99.90
19665;DHT22;9980;51.020;7.772;2022-10-15T06:23:47;16.60;99.90
19665;DHT22;9980;51.020;7.772;2022-10-15T06:26:14;16.60;99.90
19665;DHT22;9980;51.020;7.772;2022-10-15T06:28:46;16.50;99.90
19665;DHT22;9980;51.020;7.772;2022-10-15T06:31:14;16.50;99.90
19665;DHT22;9980;51.020;7.772;2022-10-15T06:33:44;16.50;99.90
19665;DHT22;9980;51.020;7.772;2022-10-15T06:36:11;16.50;99.90
19665;DHT22;9980;51.020;7.772;2022-10-15T06:38:42;16.60;99.90
19665;DHT22;9980;51.020;7.772;2022-10-15T06:41:12;16.60;99.90
19665;DHT22;9980;51.020;7.772;2022-10-15T06:43:39;16.60;99.90
19665;DHT22;9980;51.020;7.772;2022-10-15T06:46:08;16.60;99.90
19665;DHT22;9980;51.020;7.772;2022-10-15T06:48:36;16.60;99.90
19665;DHT22;9980;51.020;7.772;2022-10-15T06:51:04;16.60;99.90
19665;DHT22;9980;51.020;7.772;2022-10-15T06:53:32;16.60;99.90
19665;DHT22;9980;51.020;7.772;2022-10-15T06:56:03;16.60;99.90
19665;DHT22;9980;51.020;7.772;2022-10-15T06:58:36;16.60;99.90
19665;DHT22;9980;51.020;7.772;2022-10-15T07:01:05;16.60;99.90
19665;DHT22;9980;51.020;7.772;2022-10-15T07:03:33;16.60;99.90
19665;DHT22;9980;51.020;7.772;2022-10-15T07:06:07;16.70;99.90
19665;DHT22;9980;51.020;7.772;2022-10-15T07:08:35;16.70;99.90
19665;DHT22;9980;51.020;7.772;2022-10-15T07:11:04;16.70;99.90
19665;DHT22;9980;51.020;7.772;2022-10-15T07:13:32;16.70;99.90
19665;DHT22;9980;51.020;7.772;2022-10-15T07:16:07;16.70;99.90
19665;DHT22;9980;51.020;7.772;2022-10-15T07:18:36;16.80;99.90
19665;DHT22;9980;51.020;7.772;2022-10-15T07:21:05;16.80;99.90
19665;DHT22;9980;51.020;7.772;2022-10-15T07:23:33;16.80;99.90
19665;DHT22;9980;51.020;7.772;2022-10-15T07:26:01;16.80;99.90
19665;DHT22;9980;51.020;7.772;2022-10-15T07:28:28;16.90;99.90
19665;DHT22;9980;51.020;7.772;2022-10-15T07:31:01;16.90;99.90
19665;DHT22;9980;51.020;7.772;2022-10-15T07:33:30;16.90;99.90
19665;DHT22;9980;51.020;7.772;2022-10-15T07:36:06;17.00;99.90
19665;DHT22;9980;51.020;7.772;2022-10-15T07:38:35;17.00;99.90
19665;DHT22;9980;51.020;7.772;2022-10-15T07:41:03;17.00;99.90
19665;DHT22;9980;51.020;7.772;2022-10-15T07:43:38;17.10;99.90
19665;DHT22;9980;51.020;7.772;2022-10-15T07:46:06;17.10;99.90
19665;DHT22;9980;51.020;7.772;2022-10-15T07:48:33;17.10;99.90
19665;DHT22;9980;51.020;7.772;2022-10-15T07:51:05;17.20;99.90
19665;DHT22;9980;51.020;7.772;2022-10-15T07:53:33;17.20;99.90
19665;DHT22;9980;51.020;7.772;2022-10-15T07:56:02;17.20;99.90
19665;DHT22;9980;51.020;7.772;2022-10-15T07:58:36;17.20;99.90
19665;DHT22;9980;51.020;7.772;2022-10-15T08:01:05;17.30;99.90
19665;DHT22;9980;51.020;7.772;2022-10-15T08:03:34;17.30;99.90
19665;DHT22;9980;51.020;7.772;2022-10-15T08:06:03;17.30;99.90
19665;DHT22;9980;51.020;7.772;2022-10-15T08:08:33;17.30;99.90
19665;DHT22;9980;51.020;7.772;2022-10-15T08:11:12;17.30;99.90
19665;DHT22;9980;51.020;7.772;2022-10-15T08:13:42;17.30;99.90
19665;DHT22;9980;51.020;7.772;2022-10-15T08:16:11;17.30;99.90
19665;DHT22;9980;51.020;7.772;2022-10-15T08:18:41;17.30;99.90
19665;DHT22;9980;51.020;7.772;2022-10-15T08:21:10;17.30;99.90
19665;DHT22;9980;51.020;7.772;2022-10-15T08:23:37;17.40;99.90
19665;DHT22;9980;51.020;7.772;2022-10-15T08:26:05;17.40;99.90
19665;DHT22;9980;51.020;7.772;2022-10-15T08:28:33;17.40;99.90
19665;DHT22;9980;51.020;7.772;2022-10-15T08:31:02;17.40;99.90
19665;DHT22;9980;51.020;7.772;2022-10-15T08:33:33;17.50;99.90
19665;DHT22;9980;51.020;7.772;2022-10-15T08:36:01;17.50;99.90
19665;DHT22;9980;51.020;7.772;2022-10-15T08:38:31;17.60;99.90
19665;DHT22;9980;51.020;7.772;2022-10-15T08:41:00;17.60;99.90
19665;DHT22;9980;51.020;7.772;2022-10-15T08:43:37;17.70;99.90
19665;DHT22;9980;51.020;7.772;2022-10-15T08:46:24;17.80;99.90
19665;DHT22;9980;51.020;7.772;2022-10-15T08:48:59;17.80;99.90
19665;DHT22;9980;51.020;7.772;2022-10-15T08:51:47;17.90;99.90
19665;DHT22;9980;51.020;7.772;2022-10-15T08:54:20;18.00;99.90
19665;DHT22;9980;51.020;7.772;2022-10-15T08:56:55;18.00;99.90
19665;DHT22;9980;51.020;7.772;2022-10-15T09:06:18;18.10;99.90
19665;DHT22;9980;51.020;7.772;2022-10-15T09:09:05;18.20;99.90
19665;DHT22;9980;51.020;7.772;2022-10-15T09:14:34;18.30;99.90
19665;DHT22;9980;51.020;7.772;2022-10-15T09:17:16;18.30;99.90
19665;DHT22;9980;51.020;7.772;2022-10-15T09:19:50;18.40;99.90
19665;DHT22;9980;51.020;7.772;2022-10-15T09:22:24;18.50;99.90
19665;DHT22;9980;51.020;7.772;2022-10-15T09:24:53;18.50;99.90
19665;DHT22;9980;51.020;7.772;2022-10-15T09:27:34;18.60;99.90
19665;DHT22;9980;51.020;7.772;2022-10-15T09:38:56;18.90;99.90
19665;DHT22;9980;51.020;7.772;2022-10-15T09:42:00;19.00;99.90
19665;DHT22;9980;51.020;7.772;2022-10-15T09:44:43;19.10;99.90
19665;DHT22;9980;51.020;7.772;2022-10-15T09:47:33;19.10;99.90
19665;DHT22;9980;51.020;7.772;2022-10-15T09:50:03;19.20;99.90
19665;DHT22;9980;51.020;7.772;2022-10-15T09:58:24;19.40;99.90
19665;DHT22;9980;51.020;7.772;2022-10-15T10:01:03;19.40;99.90
19665;DHT22;9980;51.020;7.772;2022-10-15T10:03:38;19.40;99.90
19665;DHT22;9980;51.020;7.772;2022-10-15T10:06:08;19.40;99.90
19665;DHT22;9980;51.020;7.772;2022-10-15T10:08:53;19.50;99.90
19665;DHT22;9980;51.020;7.772;2022-10-15T10:11:24;19.50;99.90
19665;DHT22;9980;51.020;7.772;2022-10-15T10:13:56;19.50;99.90
19665;DHT22;9980;51.020;7.772;2022-10-15T10:16:26;19.50;99.90
19665;DHT22;9980;51.020;7.772;2022-10-15T10:19:04;19.60;99.90
19665;DHT22;9980;51.020;7.772;2022-10-15T10:21:40;19.60;99.90
19665;DHT22;9980;51.020;7.772;2022-10-15T10:26:58;19.60;99.90
19665;DHT22;9980;51.020;7.772;2022-10-15T10:29:26;19.60;99.90
19665;DHT22;9980;51.020;7.772;2022-10-15T10:32:21;19.60;99.90
19665;DHT22;9980;51.020;7.772;2022-10-15T10:34:53;19.70;99.90
19665;DHT22;9980;51.020;7.772;2022-10-15T10:37:20;19.80;99.90
19665;DHT22;9980;51.020;7.772;2022-10-15T10:39:54;19.80;99.90
19665;DHT22;9980;51.020;7.772;2022-10-15T10:42:32;19.80;99.90
19665;DHT22;9980;51.020;7.772;2022-10-15T10:45:22;19.80;99.90
19665;DHT22;9980;51.020;7.772;2022-10-15T10:47:49;19.90;99.90
19665;DHT22;9980;51.020;7.772;2022-10-15T10:50:29;19.90;99.90
19665;DHT22;9980;51.020;7.772;2022-10-15T10:53:22;19.90;99.90
19665;DHT22;9980;51.020;7.772;2022-10-15T10:55:51;19.90;99.90
19665;DHT22;9980;51.020;7.772;2022-10-15T10:58:27;19.90;99.90
19665;DHT22;9980;51.020;7.772;2022-10-15T11:00:57;19.90;99.90
19665;DHT22;9980;51.020;7.772;2022-10-15T11:03:33;19.90;99.90
19665;DHT22;9980;51.020;7.772;2022-10-15T11:06:33;19.90;99.90
19665;DHT22;9980;51.020;7.772;2022-10-15T11:12:36;19.90;99.90
19665;DHT22;9980;51.020;7.772;2022-10-15T11:15:38;19.90;99.90
19665;DHT22;9980;51.020;7.772;2022-10-15T11:18:41;19.90;99.90
19665;DHT22;9980;51.020;7.772;2022-10-15T11:21:41;19.90;99.90
19665;DHT22;9980;51.020;7.772;2022-10-15T11:24:23;19.90;99.90
19665;DHT22;9980;51.020;7.772;2022-10-15T11:30:58;20.00;99.90
19665;DHT22;9980;51.020;7.772;2022-10-15T11:39:47;20.00;99.90
19665;DHT22;9980;51.020;7.772;2022-10-15T11:43:02;20.00;99.90
19665;DHT22;9980;51.020;7.772;2022-10-15T11:46:02;20.10;99.90
19665;DHT22;9980;51.020;7.772;2022-10-15T11:51:28;20.10;99.90
19665;DHT22;9980;51.020;7.772;2022-10-15T11:57:18;20.20;99.90
19665;DHT22;9980;51.020;7.772;2022-10-15T12:00:30;20.30;99.90
19665;DHT22;9980;51.020;7.772;2022-10-15T12:03:25;20.30;99.90
19665;DHT22;9980;51.020;7.772;2022-10-15T12:06:27;20.30;99.90
19665;DHT22;9980;51.020;7.772;2022-10-15T12:09:15;20.30;99.90
19665;DHT22;9980;51.020;7.772;2022-10-15T12:12:38;20.30;99.90
19665;DHT22;9980;51.020;7.772;2022-10-15T12:24:50;20.20;99.90
19665;DHT22;9980;51.020;7.772;2022-10-15T12:27:34;20.20;99.90
19665;DHT22;9980;51.020;7.772;2022-10-15T12:30:26;20.20;99.90
19665;DHT22;9980;51.020;7.772;2022-10-15T12:33:34;20.20;99.90
19665;DHT22;9980;51.020;7.772;2022-10-15T12:36:32;20.20;99.90
19665;DHT22;9980;51.020;7.772;2022-10-15T12:39:07;20.20;99.90
19665;DHT22;9980;51.020;7.772;2022-10-15T12:42:37;20.20;99.90
19665;DHT22;9980;51.020;7.772;2022-10-15T12:45:36;20.20;99.90
19665;DHT22;9980;51.020;7.772;2022-10-15T13:00:49;20.30;99.90
19665;DHT22;9980;51.020;7.772;2022-10-15T13:03:35;20.30;99.90
19665;DHT22;9980;51.020;7.772;2022-10-15T13:06:33;20.40;99.90
19665;DHT22;9980;51.020;7.772;2022-10-15T13:09:17;20.40;99.90
19665;DHT22;9980;51.020;7.772;2022-10-15T13:12:26;20.40;99.90
19665;DHT22;9980;51.020;7.772;2022-10-15T13:14:58;20.40;99.90
19665;DHT22;9980;51.020;7.772;2022-10-15T13:17:37;20.30;99.90
19665;DHT22;9980;51.020;7.772;2022-10-15T13:20:15;20.30;99.90
19665;DHT22;9980;51.020;7.772;2022-10-15T13:23:22;20.30;99.90
19665;DHT22;9980;51.020;7.772;2022-10-15T13:26:33;20.30;99.90
19665;DHT22;9980;51.020;7.772;2022-10-15T13:29:00;20.30;99.90
19665;DHT22;9980;51.020;7.772;2022-10-15T13:31:30;20.30;99.90
19665;DHT22;9980;51.020;7.772;2022-10-15T13:34:14;20.30;99.90
19665;DHT22;9980;51.020;7.772;2022-10-15T13:36:48;20.30;99.90
19665;DHT22;9980;51.020;7.772;2022-10-15T13:39:35;20.30;99.90
19665;DHT22;9980;51.020;7.772;2022-10-15T13:42:20;20.30;99.90
19665;DHT22;9980;51.020;7.772;2022-10-15T13:44:59;20.30;99.90
19665;DHT22;9980;51.020;7.772;2022-10-15T13:47:46;20.30;99.90
19665;DHT22;9980;51.020;7.772;2022-10-15T13:52:57;20.30;99.90
19665;DHT22;9980;51.020;7.772;2022-10-15T13:55:31;20.40;99.90
19665;DHT22;9980;51.020;7.772;2022-10-15T14:03:31;20.50;99.90
19665;DHT22;9980;51.020;7.772;2022-10-15T14:06:15;20.50;99.90
19665;DHT22;9980;51.020;7.772;2022-10-15T14:08:45;20.50;99.90
19665;DHT22;9980;51.020;7.772;2022-10-15T14:11:15;20.50;99.90
19665;DHT22;9980;51.020;7.772;2022-10-15T14:13:57;20.50;99.90
19665;DHT22;9980;51.020;7.772;2022-10-15T14:16:34;20.50;99.90
19665;DHT22;9980;51.020;7.772;2022-10-15T14:19:13;20.50;99.90
19665;DHT22;9980;51.020;7.772;2022-10-15T14:21:46;20.50;99.90
19665;DHT22;9980;51.020;7.772;2022-10-15T14:24:20;20.50;99.90
19665;DHT22;9980;51.020;7.772;2022-10-15T14:26:52;20.60;99.90
19665;DHT22;9980;51.020;7.772;2022-10-15T14:29:28;20.50;99.90
19665;DHT22;9980;51.020;7.772;2022-10-15T14:34:47;20.50;99.90
19665;DHT22;9980;51.020;7.772;2022-10-15T14:37:40;20.60;99.90
19665;DHT22;9980;51.020;7.772;2022-10-15T14:42:39;20.60;99.90
19665;DHT22;9980;51.020;7.772;2022-10-15T14:48:36;20.60;99.90
19665;DHT22;9980;51.020;7.772;2022-10-15T14:51:13;20.60;99.90
19665;DHT22;9980;51.020;7.772;2022-10-15T14:53:50;20.60;99.90
19665;DHT22;9980;51.020;7.772;2022-10-15T14:56:20;20.60;99.90
19665;DHT22;9980;51.020;7.772;2022-10-15T14:58:58;20.60;99.90
19665;DHT22;9980;51.020;7.772;2022-10-15T15:01:26;20.60;99.90
19665;DHT22;9980;51.020;7.772;2022-10-15T15:03:55;20.60;99.90
19665;DHT22;9980;51.020;7.772;2022-10-15T15:06:22;20.60;99.90
19665;DHT22;9980;51.020;7.772;2022-10-15T15:08:49;20.60;99.90
19665;DHT22;9980;51.020;7.772;2022-10-15T15:11:22;20.60;99.90
19665;DHT22;9980;51.020;7.772;2022-10-15T15:13:50;20.60;99.90
19665;DHT22;9980;51.020;7.772;2022-10-15T15:16:19;20.70;99.90
19665;DHT22;9980;51.020;7.772;2022-10-15T15:18:46;20.60;99.90
19665;DHT22;9980;51.020;7.772;2022-10-15T15:21:20;20.60;99.90
19665;DHT22;9980;51.020;7.772;2022-10-15T15:23:49;20.60;99.90
19665;DHT22;9980;51.020;7.772;2022-10-15T15:26:16;20.60;99.90
19665;DHT22;9980;51.020;7.772;2022-10-15T15:28:43;20.60;99.90
19665;DHT22;9980;51.020;7.772;2022-10-15T15:31:16;20.60;99.90
19665;DHT22;9980;51.020;7.772;2022-10-15T15:33:43;20.60;99.90
19665;DHT22;9980;51.020;7.772;2022-10-15T15:36:13;20.60;99.90
19665;DHT22;9980;51.020;7.772;2022-10-15T15:38:48;20.60;99.90
19665;DHT22;9980;51.020;7.772;2022-10-15T15:41:21;20.60;99.90
19665;DHT22;9980;51.020;7.772;2022-10-15T15:43:49;20.60;99.90
19665;DHT22;9980;51.020;7.772;2022-10-15T15:46:17;20.60;99.90
19665;DHT22;9980;51.020;7.772;2022-10-15T15:48:44;20.60;99.90
19665;DHT22;9980;51.020;7.772;2022-10-15T15:51:25;20.50;99.90
19665;DHT22;9980;51.020;7.772;2022-10-15T15:53:57;20.50;99.90
19665;DHT22;9980;51.020;7.772;2022-10-15T15:56:24;20.50;99.90
19665;DHT22;9980;51.020;7.772;2022-10-15T15:58:51;20.50;99.90
19665;DHT22;9980;51.020;7.772;2022-10-15T16:01:19;20.40;99.90
19665;DHT22;9980;51.020;7.772;2022-10-15T16:03:46;20.40;99.90
19665;DHT22;9980;51.020;7.772;2022-10-15T16:06:13;20.40;99.90
19665;DHT22;9980;51.020;7.772;2022-10-15T16:08:40;20.40;99.90
19665;DHT22;9980;51.020;7.772;2022-10-15T16:11:07;20.40;99.90
19665;DHT22;9980;51.020;7.772;2022-10-15T16:13:35;20.30;99.90
19665;DHT22;9980;51.020;7.772;2022-10-15T16:16:02;20.30;99.90
19665;DHT22;9980;51.020;7.772;2022-10-15T16:18:29;20.30;99.90
19665;DHT22;9980;51.020;7.772;2022-10-15T16:20:56;20.20;99.90
19665;DHT22;9980;51.020;7.772;2022-10-15T16:23:23;20.20;99.90
19665;DHT22;9980;51.020;7.772;2022-10-15T16:25:50;20.20;99.90
19665;DHT22;9980;51.020;7.772;2022-10-15T16:28:17;20.10;99.90
19665;DHT22;9980;51.020;7.772;2022-10-15T16:30:44;20.10;99.90
19665;DHT22;9980;51.020;7.772;2022-10-15T16:33:12;20.10;99.90
19665;DHT22;9980;51.020;7.772;2022-10-15T16:35:40;20.00;99.90
19665;DHT22;9980;51.020;7.772;2022-10-15T16:38:07;20.00;99.90
19665;DHT22;9980;51.020;7.772;2022-10-15T16:40:34;20.00;99.90
19665;DHT22;9980;51.020;7.772;2022-10-15T16:43:01;19.90;99.90
19665;DHT22;9980;51.020;7.772;2022-10-15T16:45:28;19.90;99.90
19665;DHT22;9980;51.020;7.772;2022-10-15T16:47:55;19.90;99.90
19665;DHT22;9980;51.020;7.772;2022-10-15T16:50:22;19.90;99.90
19665;DHT22;9980;51.020;7.772;2022-10-15T16:52:50;19.80;99.90
19665;DHT22;9980;51.020;7.772;2022-10-15T16:55:17;19.80;99.90
19665;DHT22;9980;51.020;7.772;2022-10-15T16:57:43;19.80;99.90
19665;DHT22;9980;51.020;7.772;2022-10-15T17:00:11;19.80;99.90
19665;DHT22;9980;51.020;7.772;2022-10-15T17:02:38;19.80;99.90
19665;DHT22;9980;51.020;7.772;2022-10-15T17:05:05;19.70;99.90
19665;DHT22;9980;51.020;7.772;2022-10-15T17:07:32;19.70;99.90
19665;DHT22;9980;51.020;7.772;2022-10-15T17:09:59;19.70;99.90
19665;DHT22;9980;51.020;7.772;2022-10-15T17:12:27;19.70;99.90
19665;DHT22;9980;51.020;7.772;2022-10-15T17:14:54;19.60;99.90
19665;DHT22;9980;51.020;7.772;2022-10-15T17:17:21;19.60;99.90
19665;DHT22;9980;51.020;7.772;2022-10-15T17:19:48;19.60;99.90
19665;DHT22;9980;51.020;7.772;2022-10-15T17:22:15;19.60;99.90
19665;DHT22;9980;51.020;7.772;2022-10-15T17:24:42;19.50;99.90
19665;DHT22;9980;51.020;7.772;2022-10-15T17:27:09;19.50;99.90
19665;DHT22;9980;51.020;7.772;2022-10-15T17:29:36;19.50;99.90
19665;DHT22;9980;51.020;7.772;2022-10-15T17:32:03;19.50;99.90
19665;DHT22;9980;51.020;7.772;2022-10-15T17:34:30;19.50;99.90
19665;DHT22;9980;51.020;7.772;2022-10-15T17:36:57;19.40;99.90
19665;DHT22;9980;51.020;7.772;2022-10-15T17:39:24;19.40;99.90
19665;DHT22;9980;51.020;7.772;2022-10-15T17:41:51;19.40;99.90
19665;DHT22;9980;51.020;7.772;2022-10-15T17:44:18;19.40;99.90
19665;DHT22;9980;51.020;7.772;2022-10-15T17:46:45;19.30;99.90
19665;DHT22;9980;51.020;7.772;2022-10-15T17:49:21;19.30;99.90
19665;DHT22;9980;51.020;7.772;2022-10-15T17:51:48;19.30;99.90
19665;DHT22;9980;51.020;7.772;2022-10-15T17:54:15;19.30;99.90
19665;DHT22;9980;51.020;7.772;2022-10-15T17:56:43;19.20;99.90
19665;DHT22;9980;51.020;7.772;2022-10-15T17:59:10;19.20;99.90